Time;durP1;ratioP1;P1;durP2;ratioP2;P2;SDS_P1;SDS_P2;PMS_P1;PMS_P2;Temp;Humidity;BMP_temperature;BMP_pressure;BME280_temperature;BME280_humidity;BME280_pressure;Samples;Min_cycle;Max_cycle;Signal;HPM_P1;HPM_P2
2022/11/04 00:01:44;;;;;;;41.65;13.80;;;9.90;99.90;;;;;;5056016;28;20053;-73
2022/11/04 00:04:14;;;;;;;52.28;14.90;;;9.50;99.90;;;;;;5055956;28;20053;-74
2022/11/04 00:06:41;;;;;;;44.72;15.13;;;10.50;99.90;;;;;;5054097;28;20045;-74
2022/11/04 00:09:19;;;;;;;48.15;13.98;;;10.30;99.90;;;;;;5034852;28;20049;-74
2022/11/04 00:14:34;;;;;;;34.08;12.18;;;8.60;99.90;;;;;;5034840;28;20053;-75
2022/11/04 00:17:19;;;;;;;36.28;13.35;;;8.60;99.90;;;;;;5034851;28;20060;-74
2022/11/04 00:33:24;;;;;;;32.85;10.48;;;8.60;99.90;;;;;;5035680;28;20045;-73
2022/11/04 00:33:51;;;;;;;34.72;11.70;;;8.60;99.90;;;;;;5035337;28;20049;-74
2022/11/04 00:36:19;;;;;;;39.45;12.20;;;8.60;99.90;;;;;;5034137;28;20041;-73
2022/11/04 00:38:46;;;;;;;45.55;12.50;;;8.60;99.90;;;;;;5018043;28;20499;-75
2022/11/04 00:41:26;;;;;;;45.72;13.32;;;10.20;99.90;;;;;;5035422;28;20045;-73
2022/11/04 00:44:04;;;;;;;43.33;11.73;;;8.60;99.90;;;;;;5016930;28;20053;-75
2022/11/04 00:46:33;;;;;;;45.88;11.73;;;8.70;99.90;;;;;;5035060;28;20049;-73
2022/11/04 00:49:00;;;;;;;39.95;11.70;;;8.70;99.90;;;;;;5034317;28;20472;-75
2022/11/04 00:51:28;;;;;;;42.00;11.50;;;8.70;99.90;;;;;;5035153;28;20045;-73
2022/11/04 00:53:57;;;;;;;40.55;11.38;;;9.70;99.90;;;;;;5034904;28;20053;-74
2022/11/04 00:56:24;;;;;;;32.83;10.93;;;8.70;99.90;;;;;;5016594;28;20037;-73
2022/11/04 00:58:52;;;;;;;35.83;11.27;;;8.70;99.90;;;;;;5034877;28;20476;-74
2022/11/04 01:01:19;;;;;;;41.92;12.00;;;9.30;99.90;;;;;;5034879;28;20049;-75
2022/11/04 01:03:50;;;;;;;33.28;10.63;;;8.70;99.90;;;;;;5033742;28;20053;-74
2022/11/04 01:06:19;;;;;;;44.78;11.57;;;8.70;99.90;;;;;;5017867;28;20049;-74
2022/11/04 01:08:47;;;;;;;37.95;10.85;;;8.70;99.90;;;;;;5050190;28;20068;-73
2022/11/04 01:11:15;;;;;;;;;;;8.80;99.90;;;;;;5055155;28;20064;-74
2022/11/04 01:13:43;;;;;;;29.35;10.18;;;8.70;99.90;;;;;;5054828;28;19932;-74
2022/11/04 01:16:11;;;;;;;0.00;0.00;;;8.70;99.90;;;;;;5053872;28;20052;-73
2022/11/04 01:18:39;;;;;;;0.30;0.22;;;8.70;99.90;;;;;;5054669;28;20056;-75
2022/11/04 01:21:12;;;;;;;0.00;0.00;;;10.20;99.90;;;;;;5054698;28;20049;-75
2022/11/04 01:23:41;;;;;;;0.60;0.47;;;9.80;99.90;;;;;;5052631;28;20045;-75
2022/11/04 01:26:14;;;;;;;0.00;0.00;;;10.60;99.90;;;;;;5054036;28;20051;-74
2022/11/04 01:28:42;;;;;;;0.00;0.00;;;8.70;99.90;;;;;;5053453;28;20041;-76
2022/11/04 01:31:20;;;;;;;0.00;0.00;;;8.70;99.90;;;;;;5054460;28;20375;-74
2022/11/04 01:33:48;;;;;;;0.00;0.00;;;9.90;99.90;;;;;;5053828;28;20068;-74
2022/11/04 01:36:16;;;;;;;0.00;0.00;;;8.80;99.90;;;;;;5053424;28;20052;-73
2022/11/04 01:38:44;;;;;;;0.00;0.00;;;8.80;99.90;;;;;;5054558;28;20056;-75
2022/11/04 01:41:30;;;;;;;0.00;0.00;;;8.80;99.90;;;;;;5053515;28;20057;-74
2022/11/04 01:44:03;;;;;;;0.00;0.00;;;8.80;99.90;;;;;;5052337;28;20045;-74
2022/11/04 01:46:44;;;;;;;0.00;0.00;;;8.80;99.90;;;;;;5054554;28;20045;-75
2022/11/04 01:49:24;;;;;;;0.00;0.00;;;8.80;99.90;;;;;;5053377;28;20056;-75
2022/11/04 01:52:05;;;;;;;0.00;0.00;;;8.90;99.90;;;;;;5054615;28;20041;-75
2022/11/04 01:54:34;;;;;;;0.00;0.00;;;8.70;99.90;;;;;;5054430;28;20067;-74
2022/11/04 01:57:07;;;;;;;0.00;0.00;;;9.90;99.90;;;;;;5053108;28;20060;-75
2022/11/04 01:59:39;;;;;;;0.00;0.00;;;9.30;99.90;;;;;;5053528;28;20049;-73
2022/11/04 02:02:07;;;;;;;0.00;0.00;;;8.70;99.90;;;;;;5053053;28;20045;-75
2022/11/04 02:04:37;;;;;;;0.00;0.00;;;10.00;99.90;;;;;;5053477;28;20064;-73
2022/11/04 02:07:07;;;;;;;0.00;0.00;;;8.70;99.90;;;;;;5049506;28;20056;-75
2022/11/04 02:09:37;;;;;;;0.00;0.00;;;10.30;99.90;;;;;;5033210;28;20045;-75
2022/11/04 02:14:52;;;;;;;0.00;0.00;;;9.50;99.90;;;;;;5034427;28;20056;-74
2022/11/04 02:17:39;;;;;;;0.00;0.00;;;8.70;99.90;;;;;;5033164;28;20483;-74
2022/11/04 02:20:16;;;;;;;0.00;0.00;;;8.70;99.90;;;;;;5034189;28;20049;-75
2022/11/04 02:23:17;;;;;;;0.00;0.00;;;8.70;99.90;;;;;;5033296;28;20049;-74
2022/11/04 02:26:12;;;;;;;0.00;0.00;;;8.70;99.90;;;;;;5000727;28;20069;-73
2022/11/04 02:28:58;;;;;;;0.00;0.00;;;8.70;99.90;;;;;;5032857;28;20056;-73
2022/11/04 02:31:39;;;;;;;0.00;0.00;;;8.70;99.90;;;;;;5034441;28;20045;-73
2022/11/04 02:34:13;;;;;;;0.00;0.00;;;10.40;99.90;;;;;;5017002;28;20050;-74
2022/11/04 02:37:14;;;;;;;0.00;0.00;;;9.00;99.90;;;;;;5033052;28;20052;-75
2022/11/04 02:39:55;;;;;;;0.00;0.00;;;9.90;99.90;;;;;;4953997;28;20058;-74
2022/11/04 02:42:38;;;;;;;0.00;0.00;;;8.70;99.90;;;;;;5036349;28;20045;-74
2022/11/04 02:45:09;;;;;;;1.85;1.08;;;8.70;99.90;;;;;;5037328;28;20053;-74
2022/11/04 02:47:41;;;;;;;0.00;0.00;;;8.70;99.90;;;;;;5037592;28;20045;-74
2022/11/04 02:50:16;;;;;;;0.00;0.00;;;8.70;99.90;;;;;;5036223;28;20049;-75
2022/11/04 02:52:52;;;;;;;0.00;0.00;;;8.70;99.90;;;;;;5037265;28;20054;-75
2022/11/04 02:55:38;;;;;;;0.00;0.00;;;9.70;99.90;;;;;;5019044;28;20049;-74
2022/11/04 02:58:12;;;;;;;0.00;0.00;;;8.80;99.90;;;;;;5037863;28;20049;-73
2022/11/04 03:00:42;;;;;;;0.00;0.00;;;8.70;99.90;;;;;;5020165;28;20160;-75
2022/11/04 03:03:18;;;;;;;0.00;0.00;;;10.00;99.90;;;;;;5036105;28;20041;-75
2022/11/04 03:05:49;;;;;;;0.00;0.00;;;8.80;99.90;;;;;;5020300;28;20053;-75
2022/11/04 03:08:26;;;;;;;0.00;0.00;;;8.80;99.90;;;;;;5036768;28;20045;-76
2022/11/04 03:10:59;;;;;;;0.00;0.00;;;8.90;99.90;;;;;;5037291;28;20049;-75
2022/11/04 03:13:30;;;;;;;0.00;0.00;;;8.90;99.90;;;;;;5037129;28;20041;-73
2022/11/04 03:16:02;;;;;;;0.00;0.00;;;8.80;99.90;;;;;;5018610;28;20045;-76
2022/11/04 03:18:45;;;;;;;0.00;0.00;;;8.80;99.90;;;;;;5036991;28;20045;-74
2022/11/04 03:21:14;;;;;;;0.10;0.10;;;8.80;99.90;;;;;;5036667;28;20045;-73
2022/11/04 03:23:42;;;;;;;0.03;0.00;;;8.70;99.90;;;;;;5034909;28;20049;-76
2022/11/04 03:26:18;;;;;;;0.55;0.47;;;10.50;99.90;;;;;;5019736;28;20037;-73
2022/11/04 03:28:54;;;;;;;0.00;0.00;;;8.70;99.90;;;;;;5035592;28;20296;-75
2022/11/04 03:31:30;;;;;;;4.03;1.75;;;10.60;99.90;;;;;;5037163;28;20049;-74
2022/11/04 03:33:57;;;;;;;0.00;0.00;;;10.00;99.90;;;;;;5036913;28;20064;-73
2022/11/04 03:36:28;;;;;;;0.00;0.00;;;10.20;99.90;;;;;;5018641;28;20050;-75
2022/11/04 03:38:56;;;;;;;0.00;0.00;;;9.70;99.90;;;;;;5036554;28;20060;-73
2022/11/04 03:41:43;;;;;;;0.00;0.00;;;8.60;99.90;;;;;;5036289;28;20045;-74
2022/11/04 03:44:10;;;;;;;0.00;0.00;;;8.60;99.90;;;;;;5036363;28;20045;-74
2022/11/04 03:46:39;;;;;;;1.25;0.98;;;10.40;99.90;;;;;;5036555;28;20291;-75
2022/11/04 03:49:08;;;;;;;0.60;0.55;;;9.30;99.90;;;;;;5034877;28;20052;-74
2022/11/04 03:51:35;;;;;;;13.15;1.60;;;8.50;99.90;;;;;;5036257;28;20049;-75
2022/11/04 03:54:04;;;;;;;0.00;0.00;;;8.50;99.90;;;;;;5018798;28;20049;-74
2022/11/04 03:57:06;;;;;;;0.00;0.00;;;8.40;99.90;;;;;;5035259;28;20056;-72
2022/11/04 03:59:55;;;;;;;0.00;0.00;;;8.40;99.90;;;;;;5036211;28;20370;-73
2022/11/04 04:02:36;;;;;;;0.08;0.08;;;8.40;99.90;;;;;;5034983;28;20060;-74
2022/11/04 04:05:24;;;;;;;0.00;0.00;;;8.30;99.90;;;;;;5019011;28;20041;-73
2022/11/04 04:08:12;;;;;;;0.08;0.08;;;8.30;99.90;;;;;;5035649;28;20045;-74
2022/11/04 04:11:09;;;;;;;0.00;0.00;;;8.20;99.90;;;;;;5034688;28;20041;-73
2022/11/04 04:13:42;;;;;;;0.00;0.00;;;8.20;99.90;;;;;;5036039;28;20056;-73
2022/11/04 04:16:17;;;;;;;0.10;0.10;;;8.30;99.90;;;;;;5017646;28;20049;-75
2022/11/04 04:19:00;;;;;;;0.00;0.00;;;8.10;99.90;;;;;;5035690;28;20160;-74
2022/11/04 04:21:34;;;;;;;0.00;0.00;;;8.10;99.90;;;;;;5035964;28;20045;-73
2022/11/04 04:29:43;;;;;;;0.00;0.00;;;8.10;99.90;;;;;;5034753;28;20046;-72
2022/11/04 04:32:12;;;;;;;0.00;0.00;;;8.00;99.90;;;;;;5018148;28;20467;-72
2022/11/04 04:34:40;;;;;;;0.00;0.00;;;8.00;99.90;;;;;;5018265;28;20049;-73
2022/11/04 04:37:09;;;;;;;0.00;0.00;;;8.00;99.90;;;;;;5034400;28;20046;-73
2022/11/04 04:45:41;;;;;;;0.00;0.00;;;9.10;99.90;;;;;;5034993;28;20042;-73
2022/11/04 04:48:12;;;;;;;0.00;0.00;;;7.80;99.90;;;;;;5018058;28;20045;-74
2022/11/04 04:50:47;;;;;;;0.00;0.00;;;7.80;99.90;;;;;;5034049;28;20049;-73
2022/11/04 04:53:15;;;;;;;0.00;0.00;;;7.80;99.90;;;;;;5018224;28;20045;-73
2022/11/04 04:55:42;;;;;;;0.00;0.00;;;7.80;99.90;;;;;;5034135;28;20045;-74
2022/11/04 04:58:10;;;;;;;0.00;0.00;;;8.80;99.90;;;;;;5017783;28;20045;-75
2022/11/04 05:00:37;;;;;;;0.00;0.00;;;8.40;99.90;;;;;;5017102;28;20143;-73
2022/11/04 05:03:05;;;;;;;0.00;0.00;;;8.50;99.90;;;;;;5016610;28;20060;-74
2022/11/04 05:05:33;;;;;;;0.00;0.00;;;7.60;99.90;;;;;;5018001;28;20049;-73
2022/11/04 05:12:20;;;;;;;0.00;0.00;;;7.60;99.90;;;;;;5056866;28;20033;-74
2022/11/04 05:14:47;;;;;;;0.00;0.00;;;8.30;99.90;;;;;;5037836;28;20064;-74
2022/11/04 05:17:15;;;;;;;0.00;0.00;;;9.40;99.90;;;;;;5053582;28;20044;-73
2022/11/04 05:19:42;;;;;;;0.00;0.00;;;9.30;99.90;;;;;;5053659;28;20060;-74
2022/11/04 05:22:10;;;;;;;0.00;0.00;;;7.40;99.90;;;;;;5053426;28;20041;-74
2022/11/04 05:24:37;;;;;;;0.00;0.00;;;9.10;99.90;;;;;;5054464;28;20376;-74
2022/11/04 05:27:05;;;;;;;0.00;0.00;;;7.60;99.90;;;;;;5053558;28;20052;-74
2022/11/04 05:29:32;;;;;;;0.00;0.00;;;7.40;99.90;;;;;;5053470;28;20080;-74
2022/11/04 05:32:00;;;;;;;0.00;0.00;;;9.20;99.90;;;;;;5053795;28;20375;-74
2022/11/04 05:34:27;;;;;;;0.00;0.00;;;9.20;99.90;;;;;;5054670;28;20056;-74
2022/11/04 05:36:55;;;;;;;0.00;0.00;;;7.30;99.90;;;;;;5053349;28;20045;-74
2022/11/04 05:39:22;;;;;;;0.00;0.00;;;7.20;99.90;;;;;;5053505;28;20048;-74
2022/11/04 05:41:50;;;;;;;0.00;0.00;;;7.20;99.90;;;;;;5053051;28;20357;-74
2022/11/04 05:44:17;;;;;;;0.00;0.00;;;7.20;99.90;;;;;;5054605;28;20053;-73
2022/11/04 05:46:45;;;;;;;0.00;0.00;;;7.20;99.90;;;;;;5054493;28;20049;-74
2022/11/04 05:49:12;;;;;;;0.00;0.00;;;7.30;99.90;;;;;;5053209;28;20040;-74
2022/11/04 05:51:40;;;;;;;0.00;0.00;;;7.50;99.90;;;;;;5054323;28;20452;-74
2022/11/04 05:54:08;;;;;;;0.00;0.00;;;7.10;99.90;;;;;;5054320;28;20048;-74
2022/11/04 05:56:35;;;;;;;0.00;0.00;;;8.40;99.90;;;;;;5053506;28;20068;-74
2022/11/04 05:59:02;;;;;;;0.00;0.00;;;8.00;99.90;;;;;;5053670;28;20479;-74
2022/11/04 06:01:42;;;;;;;0.00;0.00;;;8.30;99.90;;;;;;5054536;28;20049;-73
2022/11/04 06:04:16;;;;;;;0.00;0.00;;;7.00;99.90;;;;;;5052869;28;20040;-73
2022/11/04 06:06:44;;;;;;;0.00;0.00;;;8.40;99.90;;;;;;5052611;28;20044;-74
2022/11/04 06:09:12;;;;;;;;;;;6.90;99.90;;;;;;5016401;28;20057;-74
2022/11/04 06:11:39;;;;;;;0.00;0.00;;;6.90;99.90;;;;;;5017219;28;20275;-74
2022/11/04 06:14:07;;;;;;;0.00;0.00;;;7.90;99.90;;;;;;5020609;28;20053;-74
2022/11/04 06:16:34;;;;;;;0.00;0.00;;;8.20;99.90;;;;;;5037238;28;20041;-73
2022/11/04 06:19:02;;;;;;;0.00;0.00;;;7.60;99.90;;;;;;5038276;28;20337;-74
2022/11/04 06:21:37;;;;;;;0.00;0.00;;;6.90;99.90;;;;;;5005823;28;20045;-74
2022/11/04 06:24:04;;;;;;;0.00;0.00;;;6.80;99.90;;;;;;5036903;28;20053;-74
2022/11/04 06:26:32;;;;;;;0.00;0.00;;;7.50;99.90;;;;;;5037006;28;20065;-74
2022/11/04 06:28:59;;;;;;;0.00;0.00;;;7.90;99.90;;;;;;5037016;28;20050;-73
2022/11/04 06:31:27;;;;;;;0.00;0.00;;;6.70;99.90;;;;;;5037678;28;20049;-73
2022/11/04 06:33:55;;;;;;;0.00;0.00;;;8.40;99.90;;;;;;5037601;28;20053;-75
2022/11/04 06:36:22;;;;;;;0.00;0.00;;;8.80;99.90;;;;;;5019695;28;20476;-73
2022/11/04 06:38:50;;;;;;;0.00;0.00;;;7.90;99.90;;;;;;5037508;28;20053;-74
2022/11/04 06:41:18;;;;;;;0.00;0.00;;;7.10;99.90;;;;;;5020333;28;20046;-74
2022/11/04 06:43:46;;;;;;;0.00;0.00;;;6.60;99.90;;;;;;5019002;28;20048;-74
2022/11/04 06:46:32;;;;;;;0.00;0.00;;;8.20;99.90;;;;;;5037805;28;20045;-72
2022/11/04 06:49:00;;;;;;;0.05;0.05;;;6.50;99.90;;;;;;5036504;28;20475;-74
2022/11/04 06:51:27;;;;;;;0.00;0.00;;;6.50;99.90;;;;;;5037306;28;20389;-73
2022/11/04 06:53:55;;;;;;;0.00;0.00;;;6.50;99.90;;;;;;5037139;28;20041;-75
2022/11/04 06:56:22;;;;;;;0.00;0.00;;;6.50;99.90;;;;;;5036371;28;20463;-73
2022/11/04 06:58:51;;;;;;;0.28;0.17;;;8.40;99.90;;;;;;5020385;28;20049;-74
2022/11/04 07:01:21;;;;;;;0.10;0.10;;;8.00;99.90;;;;;;5037086;28;20046;-74
2022/11/04 07:03:51;;;;;;;0.00;0.00;;;6.40;99.90;;;;;;5036075;28;20468;-74
2022/11/04 07:06:19;;;;;;;0.00;0.00;;;6.80;99.90;;;;;;5036844;28;20044;-74
2022/11/04 07:08:47;;;;;;;;;;;6.30;99.90;;;;;;5052330;28;20056;-74
2022/11/04 07:11:16;;;;;;;;;;;6.30;99.90;;;;;;5056344;28;19920;-74
2022/11/04 07:13:43;;;;;;;0.00;0.00;;;6.30;99.90;;;;;;5056804;28;19929;-75
2022/11/04 07:16:10;;;;;;;0.00;0.00;;;6.90;99.90;;;;;;5054924;28;20467;-73
2022/11/04 07:18:38;;;;;;;0.00;0.00;;;7.60;99.90;;;;;;5056799;28;20049;-73
2022/11/04 07:21:06;;;;;;;0.00;0.00;;;6.20;99.90;;;;;;5056636;28;20049;-74
2022/11/04 07:23:37;;;;;;;0.00;0.00;;;6.70;99.90;;;;;;5055064;28;20052;-74
2022/11/04 07:26:06;;;;;;;;;;;7.40;99.90;;;;;;5056294;28;20353;-74
2022/11/04 07:28:34;;;;;;;0.00;0.00;;;6.20;99.90;;;;;;5021701;28;19932;-73
2022/11/04 07:31:04;;;;;;;0.00;0.00;;;7.10;99.90;;;;;;5045599;28;20060;-73
2022/11/04 07:33:32;;;;;;;0.00;0.00;;;6.30;99.90;;;;;;5036375;28;20052;-72
2022/11/04 07:36:08;;;;;;;0.00;0.00;;;6.10;99.90;;;;;;5034694;28;20050;-73
2022/11/04 07:38:35;;;;;;;0.00;0.00;;;6.20;99.90;;;;;;5036325;28;20042;-71
2022/11/04 07:41:04;;;;;;;9.07;3.33;;;6.20;99.90;;;;;;5036644;28;20053;-73
2022/11/04 07:43:31;;;;;;;0.00;0.00;;;6.20;99.90;;;;;;5035009;28;20050;-73
2022/11/04 07:46:07;;;;;;;0.00;0.00;;;6.20;99.90;;;;;;5035964;28;20049;-73
2022/11/04 07:48:35;;;;;;;0.00;0.00;;;6.10;99.90;;;;;;5034664;28;20057;-72
2022/11/04 07:51:05;;;;;;;0.00;0.00;;;6.10;99.90;;;;;;5036034;28;20050;-71
2022/11/04 07:53:41;;;;;;;0.00;0.00;;;6.10;99.90;;;;;;5035891;28;20372;-73
2022/11/04 07:56:11;;;;;;;0.00;0.00;;;7.90;99.90;;;;;;5034642;28;20050;-72
2022/11/04 07:58:39;;;;;;;0.00;0.00;;;6.20;99.90;;;;;;5035694;28;20469;-73
2022/11/04 08:01:14;;;;;;;0.00;0.00;;;6.20;99.90;;;;;;5035693;28;20468;-73
2022/11/04 08:03:42;;;;;;;0.00;0.00;;;6.10;99.90;;;;;;5033488;28;20046;-73
2022/11/04 08:06:12;;;;;;;0.00;0.00;;;6.80;99.90;;;;;;5034547;28;20052;-74
2022/11/04 08:08:42;;;;;;;0.00;0.00;;;8.40;99.90;;;;;;5019847;28;20138;-72
2022/11/04 08:11:13;;;;;;;1.02;0.28;;;6.20;99.90;;;;;;5023207;28;20054;-72
2022/11/04 08:13:45;;;;;;;0.00;0.00;;;7.70;99.90;;;;;;5023885;28;20056;-73
2022/11/04 08:16:16;;;;;;;0.00;0.00;;;6.30;99.90;;;;;;5004641;28;20061;-73
2022/11/04 08:18:44;;;;;;;0.00;0.00;;;6.90;99.90;;;;;;5020442;28;20041;-73
2022/11/04 08:21:12;;;;;;;0.00;0.00;;;6.90;99.90;;;;;;5025536;28;20038;-73
2022/11/04 08:23:40;;;;;;;0.00;0.00;;;6.30;99.90;;;;;;5023371;28;20042;-72
2022/11/04 08:26:15;;;;;;;0.00;0.00;;;6.30;99.90;;;;;;5025622;28;20052;-72
2022/11/04 08:28:43;;;;;;;0.00;0.00;;;6.90;99.90;;;;;;5014595;28;20042;-73
2022/11/04 08:31:15;;;;;;;0.00;0.00;;;7.10;99.90;;;;;;4998529;28;20049;-72
2022/11/04 08:33:43;;;;;;;0.00;0.00;;;6.30;99.90;;;;;;5015566;28;20064;-72
2022/11/04 08:36:22;;;;;;;0.00;0.00;;;6.40;99.90;;;;;;5014032;28;20050;-73
2022/11/04 08:38:50;;;;;;;0.00;0.00;;;6.40;99.90;;;;;;5016057;28;20057;-72
2022/11/04 08:41:24;;;;;;;0.00;0.00;;;6.50;99.90;;;;;;5015857;28;20050;-72
2022/11/04 08:43:52;;;;;;;0.00;0.00;;;6.50;99.90;;;;;;5015008;28;20049;-73
2022/11/04 08:46:19;;;;;;;0.00;0.00;;;7.20;99.90;;;;;;5016148;28;20049;-73
2022/11/04 08:48:48;;;;;;;0.00;0.00;;;6.60;99.90;;;;;;5014925;28;20086;-73
2022/11/04 08:51:22;;;;;;;0.00;0.00;;;6.60;99.90;;;;;;5015640;28;20050;-73
2022/11/04 08:53:50;;;;;;;0.00;0.00;;;6.90;99.90;;;;;;4998606;28;20042;-74
2022/11/04 08:56:22;;;;;;;0.00;0.00;;;6.70;99.90;;;;;;5014743;28;20042;-73
2022/11/04 08:58:50;;;;;;;0.00;0.00;;;6.70;99.90;;;;;;4997998;28;20377;-73
2022/11/04 09:01:19;;;;;;;0.00;0.00;;;7.70;99.90;;;;;;5021203;28;20061;-73
2022/11/04 09:03:47;;;;;;;0.00;0.00;;;6.80;99.90;;;;;;5033886;28;20053;-73
2022/11/04 09:06:20;;;;;;;0.28;0.25;;;8.60;99.90;;;;;;5035245;28;20049;-73
2022/11/04 09:08:48;;;;;;;0.00;0.00;;;6.80;99.90;;;;;;5034433;28;20049;-73
2022/11/04 09:11:16;;;;;;;0.00;0.00;;;6.90;99.90;;;;;;5034664;28;20053;-72
2022/11/04 09:13:43;;;;;;;0.00;0.00;;;6.90;99.90;;;;;;5034821;28;20041;-72
2022/11/04 09:16:13;;;;;;;0.00;0.00;;;8.90;99.90;;;;;;5033576;28;20052;-72
2022/11/04 09:18:41;;;;;;;0.00;0.00;;;7.00;99.90;;;;;;5001402;28;20046;-73
2022/11/04 09:21:13;;;;;;;1.65;0.70;;;8.70;99.90;;;;;;5033233;28;20056;-72
2022/11/04 09:23:40;;;;;;;0.45;0.20;;;7.10;99.90;;;;;;5033415;28;20468;-73
2022/11/04 09:26:11;;;;;;;0.00;0.00;;;7.40;99.90;;;;;;5034488;28;20052;-72
2022/11/04 09:28:39;;;;;;;0.00;0.00;;;7.20;99.90;;;;;;5033467;28;20061;-72
2022/11/04 09:31:15;;;;;;;0.00;0.00;;;7.20;99.90;;;;;;5034758;28;20057;-72
2022/11/04 09:33:43;;;;;;;0.00;0.00;;;7.20;99.90;;;;;;5034711;28;20052;-72
2022/11/04 09:36:11;;;;;;;;;;;7.40;99.90;;;;;;5016547;28;20475;-73
2022/11/04 09:38:40;;;;;;;0.00;0.00;;;7.30;99.90;;;;;;5017230;28;19928;-73
2022/11/04 09:41:28;;;;;;;0.00;0.00;;;7.40;99.90;;;;;;5034485;28;20496;-72
2022/11/04 09:44:17;;;;;;;2.25;1.25;;;7.40;99.90;;;;;;5033473;28;20037;-73
2022/11/04 09:46:48;;;;;;;0.00;0.00;;;7.40;99.90;;;;;;5017316;28;20384;-72
2022/11/04 09:49:16;;;;;;;0.00;0.00;;;7.50;99.90;;;;;;5037384;28;20049;-72
2022/11/04 09:51:46;;;;;;;0.00;0.00;;;7.50;99.90;;;;;;5038565;28;20480;-72
2022/11/04 09:54:39;;;;;;;0.00;0.00;;;7.50;99.90;;;;;;5022887;28;20057;-72
2022/11/04 09:57:18;;;;;;;1.27;0.45;;;7.60;99.90;;;;;;5036935;28;20052;-72
2022/11/04 09:59:47;;;;;;;0.00;0.00;;;7.70;99.90;;;;;;5038263;28;20041;-72
2022/11/04 10:02:47;;;;;;;0.00;0.00;;;7.70;99.90;;;;;;5037126;28;20468;-72
2022/11/04 10:05:38;;;;;;;0.00;0.00;;;7.80;99.90;;;;;;5012496;28;20064;-72
2022/11/04 10:08:37;;;;;;;0.00;0.00;;;7.80;99.90;;;;;;5038269;28;20372;-72
2022/11/04 10:11:19;;;;;;;0.00;0.00;;;7.80;99.90;;;;;;5038371;28;20045;-73
2022/11/04 10:13:58;;;;;;;0.00;0.00;;;7.90;99.90;;;;;;5037521;28;20049;-73
2022/11/04 10:17:00;;;;;;;0.00;0.00;;;8.00;99.90;;;;;;5037081;28;20049;-72
2022/11/04 10:19:54;;;;;;;0.00;0.00;;;8.00;99.90;;;;;;5038263;28;20050;-72
2022/11/04 10:22:35;;;;;;;0.00;0.00;;;8.10;99.90;;;;;;5036225;28;20053;-72
2022/11/04 10:25:13;;;;;;;0.00;0.00;;;8.00;99.90;;;;;;5037938;28;20046;-72
2022/11/04 10:27:46;;;;;;;0.00;0.00;;;8.20;99.90;;;;;;5038071;28;20341;-73
2022/11/04 10:30:23;;;;;;;0.00;0.00;;;8.10;99.90;;;;;;5036767;28;20046;-72
2022/11/04 10:33:00;;;;;;;0.00;0.00;;;8.20;99.90;;;;;;5037682;28;20045;-73
2022/11/04 10:35:30;;;;;;;0.55;0.55;;;8.10;99.90;;;;;;5037028;28;20053;-72
2022/11/04 10:38:30;;;;;;;0.00;0.00;;;8.20;99.90;;;;;;5020224;28;20492;-72
2022/11/04 10:40:58;;;;;;;0.00;0.00;;;8.20;99.90;;;;;;5027420;28;20380;-72
2022/11/04 10:43:39;;;;;;;0.00;0.00;;;8.30;99.90;;;;;;5036545;28;20049;-72
2022/11/04 10:46:36;;;;;;;0.00;0.00;;;8.70;99.90;;;;;;5020417;28;20056;-72
2022/11/04 10:49:25;;;;;;;1.60;1.08;;;8.30;99.90;;;;;;5019240;28;20044;-73
2022/11/04 10:51:55;;;;;;;0.00;0.00;;;8.40;99.90;;;;;;5037775;28;20049;-72
2022/11/04 10:54:25;;;;;;;0.00;0.00;;;8.40;99.90;;;;;;5037659;28;20042;-72
2022/11/04 10:56:54;;;;;;;1.85;0.70;;;10.30;99.90;;;;;;5018853;28;20050;-72
2022/11/04 10:59:26;;;;;;;0.52;0.52;;;8.50;99.90;;;;;;5036157;28;20488;-72
2022/11/04 11:01:59;;;;;;;0.00;0.00;;;8.50;99.90;;;;;;5036234;28;20045;-72
2022/11/04 11:04:29;;;;;;;0.00;0.00;;;10.20;99.90;;;;;;5037463;28;20046;-73
2022/11/04 11:06:59;;;;;;;0.00;0.00;;;8.60;99.90;;;;;;5037130;28;20049;-73
2022/11/04 11:09:29;;;;;;;0.00;0.00;;;10.40;99.90;;;;;;5036028;28;20472;-73
2022/11/04 11:12:16;;;;;;;0.00;0.00;;;10.00;99.90;;;;;;5037260;28;20491;-72
2022/11/04 11:15:24;;;;;;;0.00;0.00;;;8.70;99.90;;;;;;5036897;28;20052;-72
2022/11/04 11:18:20;;;;;;;0.00;0.00;;;8.80;99.90;;;;;;5036751;28;20057;-73
2022/11/04 11:21:04;;;;;;;0.03;0.00;;;8.80;99.90;;;;;;5034360;28;20069;-72
2022/11/04 11:23:38;;;;;;;0.00;0.00;;;9.10;99.90;;;;;;5035375;28;20045;-72
2022/11/04 11:26:09;;;;;;;0.00;0.00;;;8.90;99.90;;;;;;5036579;28;20056;-72
2022/11/04 11:28:39;;;;;;;0.00;0.00;;;9.00;99.90;;;;;;5035336;28;20049;-71
2022/11/04 11:31:15;;;;;;;0.00;0.00;;;9.00;99.90;;;;;;5036464;28;20046;-72
2022/11/04 11:33:51;;;;;;;0.00;0.00;;;9.10;99.90;;;;;;5036056;28;20057;-71
2022/11/04 11:36:23;;;;;;;0.00;0.00;;;9.30;99.90;;;;;;5035209;28;20068;-73
2022/11/04 11:38:58;;;;;;;0.00;0.00;;;9.30;99.90;;;;;;5036109;28;20041;-71
2022/11/04 11:41:33;;;;;;;0.00;0.00;;;9.40;99.90;;;;;;5018874;28;20057;-72
2022/11/04 11:44:30;;;;;;;0.00;0.00;;;9.60;99.90;;;;;;5035068;28;20057;-73
2022/11/04 11:47:03;;;;;;;0.25;0.25;;;9.40;99.90;;;;;;5018694;28;20050;-72
2022/11/04 11:49:34;;;;;;;3.65;1.00;;;9.50;99.90;;;;;;5014852;28;20049;-72
2022/11/04 11:52:23;;;;;;;0.00;0.00;;;9.50;99.90;;;;;;5016256;28;20485;-73
2022/11/04 11:54:55;;;;;;;0.00;0.00;;;9.60;99.90;;;;;;5016146;28;20042;-72
2022/11/04 11:57:57;;;;;;;0.00;0.00;;;9.60;99.90;;;;;;5014955;28;20046;-71
2022/11/04 12:00:54;;;;;;;0.00;0.00;;;9.70;99.90;;;;;;4998849;28;20042;-73
2022/11/04 12:03:39;;;;;;;0.00;0.00;;;10.80;99.90;;;;;;5015194;28;20460;-73
2022/11/04 12:06:50;;;;;;;0.00;0.00;;;9.70;99.90;;;;;;5015592;28;20037;-72
2022/11/04 12:10:25;;;;;;;0.00;0.00;;;9.80;99.90;;;;;;5014496;28;20060;-72
2022/11/04 12:13:49;;;;;;;0.00;0.00;;;9.80;99.90;;;;;;4984067;28;20054;-72
2022/11/04 12:16:32;;;;;;;0.00;0.00;;;9.80;99.90;;;;;;5014595;28;20057;-71
2022/11/04 12:19:28;;;;;;;0.00;0.00;;;9.90;99.90;;;;;;5015395;28;20057;-72
2022/11/04 12:22:05;;;;;;;0.00;0.00;;;9.90;99.90;;;;;;4985680;28;20049;-73
2022/11/04 12:24:49;;;;;;;1.77;0.90;;;10.00;99.90;;;;;;5015690;28;20042;-72
2022/11/04 12:27:30;;;;;;;0.00;0.00;;;10.00;99.90;;;;;;4998339;28;20057;-72
2022/11/04 12:30:16;;;;;;;0.00;0.00;;;10.60;99.90;;;;;;5014532;28;20045;-72
2022/11/04 12:33:02;;;;;;;0.00;0.00;;;10.00;99.90;;;;;;5015079;28;20061;-72
2022/11/04 12:35:43;;;;;;;0.00;0.00;;;10.30;99.90;;;;;;5014174;28;20053;-72
2022/11/04 12:38:35;;;;;;;0.00;0.00;;;10.10;99.90;;;;;;5015461;28;20050;-72
2022/11/04 12:41:32;;;;;;;0.10;0.10;;;10.00;99.90;;;;;;5015518;28;20335;-72
2022/11/04 12:44:57;;;;;;;0.00;0.00;;;10.00;99.90;;;;;;5015277;28;20061;-73
2022/11/04 12:47:47;;;;;;;0.00;0.00;;;10.20;99.90;;;;;;4930219;28;20500;-72
2022/11/04 12:50:34;;;;;;;0.00;0.00;;;11.40;99.90;;;;;;5014074;28;20046;-73
2022/11/04 12:53:44;;;;;;;0.43;0.30;;;10.40;99.90;;;;;;5014344;28;20049;-72
2022/11/04 12:56:13;;;;;;;0.00;0.00;;;10.40;99.90;;;;;;4961287;28;20049;-73
2022/11/04 12:59:07;;;;;;;0.05;0.05;;;10.50;99.90;;;;;;5011425;28;20085;-71
2022/11/04 13:01:44;;;;;;;0.00;0.00;;;10.50;99.90;;;;;;5014882;28;20046;-73
2022/11/04 13:04:19;;;;;;;0.00;0.00;;;10.50;99.90;;;;;;5014890;28;20046;-73
2022/11/04 13:06:53;;;;;;;0.00;0.00;;;11.30;99.90;;;;;;5025279;28;20038;-73
2022/11/04 13:09:40;;;;;;;0.38;0.38;;;10.50;99.90;;;;;;5033468;28;20053;-72
2022/11/04 13:12:11;;;;;;;0.00;0.00;;;10.50;99.90;;;;;;5034724;28;20479;-73
2022/11/04 13:14:58;;;;;;;0.00;0.00;;;10.50;99.90;;;;;;5034470;28;20060;-77
2022/11/04 13:17:29;;;;;;;0.00;0.00;;;10.50;99.90;;;;;;5014543;28;20045;-73
2022/11/04 13:20:05;;;;;;;0.00;0.00;;;10.50;99.90;;;;;;5022902;28;20468;-75
2022/11/04 13:22:35;;;;;;;0.00;0.00;;;10.60;99.90;;;;;;5015320;28;20050;-72
2022/11/04 13:25:14;;;;;;;0.00;0.00;;;10.60;99.90;;;;;;5018402;28;20078;-74
2022/11/04 13:27:47;;;;;;;0.00;0.00;;;10.70;99.90;;;;;;5034746;28;20045;-76
2022/11/04 13:30:29;;;;;;;0.00;0.00;;;10.60;99.90;;;;;;5033713;28;20057;-76
2022/11/04 13:33:34;;;;;;;0.00;0.00;;;10.70;99.90;;;;;;5017630;28;20050;-74
2022/11/04 13:36:23;;;;;;;0.00;0.00;;;10.60;99.90;;;;;;5033314;28;20057;-70
2022/11/04 13:39:04;;;;;;;0.00;0.00;;;10.70;99.90;;;;;;5016779;28;20057;-70
2022/11/04 13:41:38;;;;;;;0.00;0.00;;;10.70;99.90;;;;;;5015170;28;20050;-71
2022/11/04 13:44:24;;;;;;;0.00;0.00;;;10.70;99.90;;;;;;4996470;28;20480;-71
2022/11/04 13:46:57;;;;;;;0.00;0.00;;;10.70;99.90;;;;;;4998242;28;20457;-70
2022/11/04 13:49:32;;;;;;;0.00;0.00;;;10.70;99.90;;;;;;5014099;28;20046;-70
2022/11/04 13:52:07;;;;;;;0.00;0.00;;;10.80;99.90;;;;;;5014968;28;20050;-73
2022/11/04 13:54:51;;;;;;;0.03;0.03;;;10.70;99.90;;;;;;5014467;28;20376;-72
2022/11/04 13:57:31;;;;;;;0.00;0.00;;;10.70;99.90;;;;;;5013340;28;20507;-72
2022/11/04 14:00:10;;;;;;;0.00;0.00;;;10.70;99.90;;;;;;5023778;28;20037;-72
2022/11/04 14:02:40;;;;;;;0.00;0.00;;;10.70;99.90;;;;;;5033360;28;20042;-73
2022/11/04 14:05:27;;;;;;;0.00;0.00;;;10.80;99.90;;;;;;5016891;28;20048;-72
2022/11/04 14:08:00;;;;;;;0.00;0.00;;;10.90;99.90;;;;;;5034266;28;20060;-72
2022/11/04 14:10:49;;;;;;;0.00;0.00;;;11.30;99.90;;;;;;5016012;28;20037;-72